Terminal Aerodrome Forecast
Issued by NWS Buffalo, NY

Home | Current Version | Previous Version | Text Only | Print | Product List | Glossary On
Versions: 1 2 3 4 5 6 7 8 9 10 11 12 13 14 15 16 17 18 19 20 21 22 23 24 25
000
FTUS41 KBUF 260500
TAFART
TAF
KART 260540Z 2606/2706 27012G18KT P6SM SCT025 OVC040
     FM261100 28012KT 6SM -SHRA SCT025 OVC035
      TEMPO 2612/2615 BKN025
     FM261600 29013KT P6SM VCSH SCT015 OVC035
     FM270000 28009KT P6SM BKN035
     FM270400 28008KT P6SM BKN050=

USA.gov is the U.S. government's official web portal to all federal, state and local government web resources and services.